sensor_id;sensor_type;location;lat;lon;timestamp;P1;durP1;ratioP1;P2;durP2;ratioP2
1877;SDS011;939;51.426;6.972;2023-04-23T00:18:21;21.57;;;13.00;;
1877;SDS011;939;51.426;6.972;2023-04-23T00:29:25;28.97;;;12.70;;
1877;SDS011;939;51.426;6.972;2023-04-23T00:31:52;20.77;;;11.70;;
1877;SDS011;939;51.426;6.972;2023-04-23T00:34:57;18.37;;;12.40;;
1877;SDS011;939;51.426;6.972;2023-04-23T00:41:10;23.33;;;12.90;;
1877;SDS011;939;51.426;6.972;2023-04-23T00:47:24;19.10;;;11.50;;
1877;SDS011;939;51.426;6.972;2023-04-23T00:57:17;24.05;;;10.60;;
1877;SDS011;939;51.426;6.972;2023-04-23T01:00:44;20.20;;;11.75;;
1877;SDS011;939;51.426;6.972;2023-04-23T01:03:27;22.07;;;11.40;;
1877;SDS011;939;51.426;6.972;2023-04-23T01:05:57;21.60;;;10.80;;
1877;SDS011;939;51.426;6.972;2023-04-23T01:18:36;26.73;;;11.38;;
1877;SDS011;939;51.426;6.972;2023-04-23T01:21:17;15.87;;;7.77;;
1877;SDS011;939;51.426;6.972;2023-04-23T01:23:50;11.67;;;8.97;;
1877;SDS011;939;51.426;6.972;2023-04-23T01:26:26;18.00;;;11.80;;
1877;SDS011;939;51.426;6.972;2023-04-23T01:29:15;16.48;;;9.20;;
1877;SDS011;939;51.426;6.972;2023-04-23T01:32:06;18.80;;;9.13;;
1877;SDS011;939;51.426;6.972;2023-04-23T01:34:42;14.77;;;9.57;;
1877;SDS011;939;51.426;6.972;2023-04-23T01:37:12;15.98;;;9.38;;
1877;SDS011;939;51.426;6.972;2023-04-23T01:39:46;15.40;;;9.63;;
1877;SDS011;939;51.426;6.972;2023-04-23T01:42:26;19.70;;;9.52;;
1877;SDS011;939;51.426;6.972;2023-04-23T01:45:11;11.32;;;8.50;;
1877;SDS011;939;51.426;6.972;2023-04-23T01:48:30;20.60;;;8.98;;
1877;SDS011;939;51.426;6.972;2023-04-23T01:51:36;19.05;;;7.35;;
1877;SDS011;939;51.426;6.972;2023-04-23T01:54:14;23.17;;;10.67;;
1877;SDS011;939;51.426;6.972;2023-04-23T01:56:57;21.50;;;11.68;;
1877;SDS011;939;51.426;6.972;2023-04-23T01:59:27;17.85;;;9.90;;
1877;SDS011;939;51.426;6.972;2023-04-23T02:01:57;17.90;;;10.38;;
1877;SDS011;939;51.426;6.972;2023-04-23T02:04:31;13.52;;;7.80;;
1877;SDS011;939;51.426;6.972;2023-04-23T02:07:28;18.30;;;9.85;;
1877;SDS011;939;51.426;6.972;2023-04-23T02:13:00;19.13;;;11.25;;
1877;SDS011;939;51.426;6.972;2023-04-23T02:15:35;18.15;;;9.57;;
1877;SDS011;939;51.426;6.972;2023-04-23T02:22:22;12.52;;;8.50;;
1877;SDS011;939;51.426;6.972;2023-04-23T02:25:18;19.88;;;9.88;;
1877;SDS011;939;51.426;6.972;2023-04-23T02:27:50;20.38;;;10.80;;
1877;SDS011;939;51.426;6.972;2023-04-23T02:30:21;14.43;;;7.88;;
1877;SDS011;939;51.426;6.972;2023-04-23T02:33:08;13.18;;;11.15;;
1877;SDS011;939;51.426;6.972;2023-04-23T02:35:53;14.63;;;9.90;;
1877;SDS011;939;51.426;6.972;2023-04-23T02:38:54;14.73;;;9.05;;
1877;SDS011;939;51.426;6.972;2023-04-23T02:42:04;16.67;;;9.98;;
1877;SDS011;939;51.426;6.972;2023-04-23T02:44:48;16.98;;;9.93;;
1877;SDS011;939;51.426;6.972;2023-04-23T02:47:43;16.73;;;8.38;;
1877;SDS011;939;51.426;6.972;2023-04-23T02:50:31;17.80;;;8.73;;
1877;SDS011;939;51.426;6.972;2023-04-23T02:53:10;14.35;;;8.77;;
1877;SDS011;939;51.426;6.972;2023-04-23T02:55:38;19.73;;;11.00;;
1877;SDS011;939;51.426;6.972;2023-04-23T02:58:05;20.35;;;10.38;;
1877;SDS011;939;51.426;6.972;2023-04-23T03:00:33;22.55;;;11.60;;
1877;SDS011;939;51.426;6.972;2023-04-23T03:03:37;17.92;;;10.20;;
1877;SDS011;939;51.426;6.972;2023-04-23T03:06:04;14.40;;;10.63;;
1877;SDS011;939;51.426;6.972;2023-04-23T03:08:32;21.40;;;9.57;;
1877;SDS011;939;51.426;6.972;2023-04-23T03:10:59;15.65;;;11.80;;
1877;SDS011;939;51.426;6.972;2023-04-23T03:13:43;14.77;;;10.63;;
1877;SDS011;939;51.426;6.972;2023-04-23T03:16:19;22.52;;;13.38;;
1877;SDS011;939;51.426;6.972;2023-04-23T03:19:00;26.70;;;11.77;;
1877;SDS011;939;51.426;6.972;2023-04-23T03:25:01;20.95;;;9.70;;
1877;SDS011;939;51.426;6.972;2023-04-23T03:30:49;25.83;;;10.38;;
1877;SDS011;939;51.426;6.972;2023-04-23T03:33:37;16.80;;;10.77;;
1877;SDS011;939;51.426;6.972;2023-04-23T03:36:36;16.30;;;9.30;;
1877;SDS011;939;51.426;6.972;2023-04-23T03:39:15;21.00;;;10.85;;
1877;SDS011;939;51.426;6.972;2023-04-23T03:41:43;17.95;;;10.45;;
1877;SDS011;939;51.426;6.972;2023-04-23T03:44:16;17.52;;;9.88;;
1877;SDS011;939;51.426;6.972;2023-04-23T03:46:45;11.82;;;8.60;;
1877;SDS011;939;51.426;6.972;2023-04-23T03:49:16;10.90;;;5.85;;
1877;SDS011;939;51.426;6.972;2023-04-23T03:51:51;17.83;;;8.98;;
1877;SDS011;939;51.426;6.972;2023-04-23T03:54:21;15.02;;;10.95;;
1877;SDS011;939;51.426;6.972;2023-04-23T03:56:56;14.57;;;10.05;;
1877;SDS011;939;51.426;6.972;2023-04-23T03:59:37;18.83;;;9.63;;
1877;SDS011;939;51.426;6.972;2023-04-23T04:05:27;10.55;;;6.90;;
1877;SDS011;939;51.426;6.972;2023-04-23T04:08:18;11.77;;;8.65;;
1877;SDS011;939;51.426;6.972;2023-04-23T04:10:46;12.85;;;7.35;;
1877;SDS011;939;51.426;6.972;2023-04-23T04:13:24;16.95;;;7.60;;
1877;SDS011;939;51.426;6.972;2023-04-23T04:16:10;13.13;;;9.07;;
1877;SDS011;939;51.426;6.972;2023-04-23T04:18:56;11.40;;;8.80;;
1877;SDS011;939;51.426;6.972;2023-04-23T04:21:36;12.38;;;9.05;;
1877;SDS011;939;51.426;6.972;2023-04-23T04:27:04;20.13;;;9.57;;
1877;SDS011;939;51.426;6.972;2023-04-23T04:29:32;12.80;;;7.68;;
1877;SDS011;939;51.426;6.972;2023-04-23T04:32:04;13.30;;;9.60;;
1877;SDS011;939;51.426;6.972;2023-04-23T04:34:32;12.50;;;7.90;;
1877;SDS011;939;51.426;6.972;2023-04-23T04:37:06;15.05;;;10.48;;
1877;SDS011;939;51.426;6.972;2023-04-23T04:39:38;17.95;;;9.02;;
1877;SDS011;939;51.426;6.972;2023-04-23T04:42:11;16.73;;;8.40;;
1877;SDS011;939;51.426;6.972;2023-04-23T04:44:39;17.73;;;8.43;;
1877;SDS011;939;51.426;6.972;2023-04-23T04:47:26;11.50;;;8.68;;
1877;SDS011;939;51.426;6.972;2023-04-23T04:50:01;11.00;;;6.88;;
1877;SDS011;939;51.426;6.972;2023-04-23T04:52:47;17.40;;;10.25;;
1877;SDS011;939;51.426;6.972;2023-04-23T04:55:48;16.15;;;7.97;;
1877;SDS011;939;51.426;6.972;2023-04-23T04:58:21;11.00;;;6.63;;
1877;SDS011;939;51.426;6.972;2023-04-23T05:00:50;10.80;;;6.88;;
1877;SDS011;939;51.426;6.972;2023-04-23T05:03:23;15.30;;;9.13;;
1877;SDS011;939;51.426;6.972;2023-04-23T05:06:13;13.88;;;9.25;;
1877;SDS011;939;51.426;6.972;2023-04-23T05:12:23;10.15;;;6.47;;
1877;SDS011;939;51.426;6.972;2023-04-23T05:14:50;12.55;;;7.30;;
1877;SDS011;939;51.426;6.972;2023-04-23T05:17:17;8.82;;;6.90;;
1877;SDS011;939;51.426;6.972;2023-04-23T05:19:48;12.02;;;8.10;;
1877;SDS011;939;51.426;6.972;2023-04-23T05:22:19;10.90;;;7.93;;
1877;SDS011;939;51.426;6.972;2023-04-23T05:25:04;10.48;;;6.97;;
1877;SDS011;939;51.426;6.972;2023-04-23T05:38:16;8.77;;;5.55;;
1877;SDS011;939;51.426;6.972;2023-04-23T05:40:56;11.75;;;6.90;;
1877;SDS011;939;51.426;6.972;2023-04-23T05:43:52;10.10;;;7.75;;
1877;SDS011;939;51.426;6.972;2023-04-23T05:56:50;30.87;;;8.63;;
1877;SDS011;939;51.426;6.972;2023-04-23T05:59:22;10.50;;;6.60;;
1877;SDS011;939;51.426;6.972;2023-04-23T06:02:26;9.97;;;5.97;;
1877;SDS011;939;51.426;6.972;2023-04-23T06:05:23;10.53;;;6.90;;
1877;SDS011;939;51.426;6.972;2023-04-23T06:07:58;14.13;;;6.97;;
1877;SDS011;939;51.426;6.972;2023-04-23T06:16:40;6.33;;;4.63;;
1877;SDS011;939;51.426;6.972;2023-04-23T06:19:08;9.40;;;5.90;;
1877;SDS011;939;51.426;6.972;2023-04-23T06:21:35;12.10;;;7.23;;
1877;SDS011;939;51.426;6.972;2023-04-23T06:24:23;7.03;;;5.57;;
1877;SDS011;939;51.426;6.972;2023-04-23T06:27:00;7.90;;;5.83;;
1877;SDS011;939;51.426;6.972;2023-04-23T06:29:44;8.00;;;5.53;;
1877;SDS011;939;51.426;6.972;2023-04-23T06:32:14;9.55;;;6.20;;
1877;SDS011;939;51.426;6.972;2023-04-23T06:34:44;10.53;;;7.17;;
1877;SDS011;939;51.426;6.972;2023-04-23T06:37:14;8.57;;;5.90;;
1877;SDS011;939;51.426;6.972;2023-04-23T06:40:36;8.83;;;4.70;;
1877;SDS011;939;51.426;6.972;2023-04-23T06:43:19;6.80;;;5.73;;
1877;SDS011;939;51.426;6.972;2023-04-23T06:49:11;9.50;;;5.27;;
1877;SDS011;939;51.426;6.972;2023-04-23T06:51:51;5.10;;;3.47;;
1877;SDS011;939;51.426;6.972;2023-04-23T06:54:25;11.77;;;6.03;;
1877;SDS011;939;51.426;6.972;2023-04-23T06:57:05;6.77;;;4.53;;
1877;SDS011;939;51.426;6.972;2023-04-23T06:59:46;10.80;;;5.77;;
1877;SDS011;939;51.426;6.972;2023-04-23T07:02:20;6.53;;;5.17;;
1877;SDS011;939;51.426;6.972;2023-04-23T07:04:52;6.50;;;4.50;;
1877;SDS011;939;51.426;6.972;2023-04-23T07:07:34;7.43;;;4.47;;
1877;SDS011;939;51.426;6.972;2023-04-23T07:10:10;7.80;;;4.90;;
1877;SDS011;939;51.426;6.972;2023-04-23T07:12:41;9.83;;;6.73;;
1877;SDS011;939;51.426;6.972;2023-04-23T07:15:17;5.27;;;4.20;;
1877;SDS011;939;51.426;6.972;2023-04-23T07:24:25;4.53;;;3.27;;
1877;SDS011;939;51.426;6.972;2023-04-23T07:26:58;3.43;;;3.13;;
1877;SDS011;939;51.426;6.972;2023-04-23T07:35:56;5.73;;;3.70;;
1877;SDS011;939;51.426;6.972;2023-04-23T07:38:54;6.83;;;4.60;;
1877;SDS011;939;51.426;6.972;2023-04-23T07:41:53;4.17;;;2.67;;
1877;SDS011;939;51.426;6.972;2023-04-23T07:44:20;4.57;;;3.70;;
1877;SDS011;939;51.426;6.972;2023-04-23T07:46:48;4.33;;;3.90;;
1877;SDS011;939;51.426;6.972;2023-04-23T07:49:25;3.47;;;2.90;;
1877;SDS011;939;51.426;6.972;2023-04-23T07:51:52;3.10;;;2.17;;
1877;SDS011;939;51.426;6.972;2023-04-23T07:54:27;3.47;;;2.83;;
1877;SDS011;939;51.426;6.972;2023-04-23T07:56:55;3.80;;;3.17;;
1877;SDS011;939;51.426;6.972;2023-04-23T07:59:31;4.03;;;3.27;;
1877;SDS011;939;51.426;6.972;2023-04-23T08:01:58;2.83;;;2.17;;
1877;SDS011;939;51.426;6.972;2023-04-23T08:04:28;4.57;;;3.80;;
1877;SDS011;939;51.426;6.972;2023-04-23T08:07:02;2.80;;;2.50;;
1877;SDS011;939;51.426;6.972;2023-04-23T08:09:31;4.90;;;2.70;;
1877;SDS011;939;51.426;6.972;2023-04-23T08:12:04;3.20;;;2.60;;
1877;SDS011;939;51.426;6.972;2023-04-23T08:14:37;5.47;;;3.93;;
1877;SDS011;939;51.426;6.972;2023-04-23T08:17:04;4.63;;;3.40;;
1877;SDS011;939;51.426;6.972;2023-04-23T08:19:35;6.33;;;3.17;;
1877;SDS011;939;51.426;6.972;2023-04-23T08:22:33;2.63;;;2.40;;
1877;SDS011;939;51.426;6.972;2023-04-23T08:25:15;11.13;;;4.37;;
1877;SDS011;939;51.426;6.972;2023-04-23T08:27:55;4.80;;;3.27;;
1877;SDS011;939;51.426;6.972;2023-04-23T08:30:31;6.13;;;3.37;;
1877;SDS011;939;51.426;6.972;2023-04-23T08:33:19;3.73;;;3.13;;
1877;SDS011;939;51.426;6.972;2023-04-23T08:36:01;4.27;;;3.20;;
1877;SDS011;939;51.426;6.972;2023-04-23T08:38:56;5.17;;;3.50;;
1877;SDS011;939;51.426;6.972;2023-04-23T08:45:08;3.40;;;3.10;;
1877;SDS011;939;51.426;6.972;2023-04-23T08:47:50;4.70;;;3.23;;
1877;SDS011;939;51.426;6.972;2023-04-23T08:50:24;2.40;;;2.07;;
1877;SDS011;939;51.426;6.972;2023-04-23T08:53:06;4.30;;;2.53;;
1877;SDS011;939;51.426;6.972;2023-04-23T08:56:11;4.67;;;2.60;;
1877;SDS011;939;51.426;6.972;2023-04-23T08:58:41;2.60;;;2.40;;
1877;SDS011;939;51.426;6.972;2023-04-23T09:01:18;2.63;;;1.70;;
1877;SDS011;939;51.426;6.972;2023-04-23T09:03:45;6.23;;;3.13;;
1877;SDS011;939;51.426;6.972;2023-04-23T09:06:23;5.57;;;2.90;;
1877;SDS011;939;51.426;6.972;2023-04-23T09:08:52;3.40;;;2.57;;
1877;SDS011;939;51.426;6.972;2023-04-23T09:11:21;2.30;;;1.97;;
1877;SDS011;939;51.426;6.972;2023-04-23T09:13:53;2.57;;;2.20;;
1877;SDS011;939;51.426;6.972;2023-04-23T09:18:54;2.20;;;1.57;;
1877;SDS011;939;51.426;6.972;2023-04-23T09:21:27;6.53;;;3.10;;
1877;SDS011;939;51.426;6.972;2023-04-23T09:24:00;4.80;;;2.87;;
1877;SDS011;939;51.426;6.972;2023-04-23T09:26:48;2.60;;;2.00;;
1877;SDS011;939;51.426;6.972;2023-04-23T09:29:32;3.23;;;2.27;;
1877;SDS011;939;51.426;6.972;2023-04-23T09:32:04;3.40;;;2.37;;
1877;SDS011;939;51.426;6.972;2023-04-23T09:34:33;5.13;;;2.73;;
1877;SDS011;939;51.426;6.972;2023-04-23T09:37:02;2.80;;;2.47;;
1877;SDS011;939;51.426;6.972;2023-04-23T09:39:38;2.00;;;1.70;;
1877;SDS011;939;51.426;6.972;2023-04-23T09:42:14;4.20;;;2.60;;
1877;SDS011;939;51.426;6.972;2023-04-23T09:45:01;10.47;;;2.70;;
1877;SDS011;939;51.426;6.972;2023-04-23T09:47:40;4.87;;;2.23;;
1877;SDS011;939;51.426;6.972;2023-04-23T09:50:13;2.43;;;1.60;;
1877;SDS011;939;51.426;6.972;2023-04-23T09:52:54;2.20;;;1.97;;
1877;SDS011;939;51.426;6.972;2023-04-23T09:55:28;2.00;;;1.80;;
1877;SDS011;939;51.426;6.972;2023-04-23T09:58:17;6.50;;;2.20;;
1877;SDS011;939;51.426;6.972;2023-04-23T10:00:47;2.70;;;2.27;;
1877;SDS011;939;51.426;6.972;2023-04-23T10:03:34;3.70;;;2.57;;
1877;SDS011;939;51.426;6.972;2023-04-23T10:06:14;3.00;;;2.17;;
1877;SDS011;939;51.426;6.972;2023-04-23T10:08:43;2.70;;;2.40;;
1877;SDS011;939;51.426;6.972;2023-04-23T10:11:13;2.60;;;1.83;;
1877;SDS011;939;51.426;6.972;2023-04-23T10:13:48;4.30;;;1.73;;
1877;SDS011;939;51.426;6.972;2023-04-23T10:16:24;2.83;;;2.03;;
1877;SDS011;939;51.426;6.972;2023-04-23T10:18:52;4.97;;;2.40;;
1877;SDS011;939;51.426;6.972;2023-04-23T10:21:30;3.03;;;1.70;;
1877;SDS011;939;51.426;6.972;2023-04-23T10:24:01;2.47;;;1.83;;
1877;SDS011;939;51.426;6.972;2023-04-23T10:26:40;2.43;;;2.10;;
1877;SDS011;939;51.426;6.972;2023-04-23T10:29:11;3.70;;;1.80;;
1877;SDS011;939;51.426;6.972;2023-04-23T10:32:02;6.50;;;2.00;;
1877;SDS011;939;51.426;6.972;2023-04-23T10:34:31;4.27;;;1.80;;
1877;SDS011;939;51.426;6.972;2023-04-23T10:37:01;2.80;;;2.23;;
1877;SDS011;939;51.426;6.972;2023-04-23T10:39:35;2.77;;;2.00;;
1877;SDS011;939;51.426;6.972;2023-04-23T10:42:05;4.13;;;2.00;;
1877;SDS011;939;51.426;6.972;2023-04-23T10:44:35;5.67;;;1.70;;
1877;SDS011;939;51.426;6.972;2023-04-23T10:47:16;1.77;;;1.60;;
1877;SDS011;939;51.426;6.972;2023-04-23T10:49:55;2.00;;;1.43;;
1877;SDS011;939;51.426;6.972;2023-04-23T10:52:22;1.67;;;1.50;;
1877;SDS011;939;51.426;6.972;2023-04-23T10:54:55;3.50;;;1.90;;
1877;SDS011;939;51.426;6.972;2023-04-23T10:57:24;1.97;;;1.50;;
1877;SDS011;939;51.426;6.972;2023-04-23T11:00:14;3.67;;;2.53;;
1877;SDS011;939;51.426;6.972;2023-04-23T11:03:44;3.57;;;1.53;;
1877;SDS011;939;51.426;6.972;2023-04-23T11:10:10;3.33;;;1.37;;
1877;SDS011;939;51.426;6.972;2023-04-23T11:12:42;8.80;;;1.93;;
1877;SDS011;939;51.426;6.972;2023-04-23T11:15:11;3.80;;;2.07;;
1877;SDS011;939;51.426;6.972;2023-04-23T11:17:58;1.90;;;1.27;;
1877;SDS011;939;51.426;6.972;2023-04-23T11:20:28;3.07;;;2.57;;
1877;SDS011;939;51.426;6.972;2023-04-23T11:22:58;3.80;;;1.50;;
1877;SDS011;939;51.426;6.972;2023-04-23T11:28:06;3.83;;;1.63;;
1877;SDS011;939;51.426;6.972;2023-04-23T11:30:34;1.73;;;1.50;;
1877;SDS011;939;51.426;6.972;2023-04-23T11:33:00;6.50;;;1.70;;
1877;SDS011;939;51.426;6.972;2023-04-23T11:35:30;4.10;;;1.70;;
1877;SDS011;939;51.426;6.972;2023-04-23T11:38:07;2.57;;;1.80;;
1877;SDS011;939;51.426;6.972;2023-04-23T11:40:34;2.23;;;1.90;;
1877;SDS011;939;51.426;6.972;2023-04-23T11:43:01;3.03;;;1.80;;
1877;SDS011;939;51.426;6.972;2023-04-23T11:45:28;1.53;;;1.43;;
1877;SDS011;939;51.426;6.972;2023-04-23T11:47:55;3.10;;;1.50;;
1877;SDS011;939;51.426;6.972;2023-04-23T11:50:23;2.10;;;1.70;;
1877;SDS011;939;51.426;6.972;2023-04-23T11:52:53;4.33;;;1.70;;
1877;SDS011;939;51.426;6.972;2023-04-23T11:55:21;2.27;;;1.80;;
1877;SDS011;939;51.426;6.972;2023-04-23T11:57:49;3.30;;;1.60;;
1877;SDS011;939;51.426;6.972;2023-04-23T12:00:17;2.53;;;2.33;;
1877;SDS011;939;51.426;6.972;2023-04-23T12:02:49;1.83;;;1.40;;
1877;SDS011;939;51.426;6.972;2023-04-23T12:05:18;6.20;;;2.40;;
1877;SDS011;939;51.426;6.972;2023-04-23T12:07:47;2.57;;;2.37;;
1877;SDS011;939;51.426;6.972;2023-04-23T12:10:17;2.20;;;2.00;;
1877;SDS011;939;51.426;6.972;2023-04-23T12:12:48;6.97;;;2.60;;
1877;SDS011;939;51.426;6.972;2023-04-23T12:15:16;6.13;;;2.43;;
1877;SDS011;939;51.426;6.972;2023-04-23T12:17:49;2.47;;;2.10;;
1877;SDS011;939;51.426;6.972;2023-04-23T12:20:17;2.93;;;2.50;;
1877;SDS011;939;51.426;6.972;2023-04-23T12:22:45;3.93;;;1.70;;
1877;SDS011;939;51.426;6.972;2023-04-23T12:25:13;4.70;;;2.17;;
1877;SDS011;939;51.426;6.972;2023-04-23T12:27:43;2.73;;;1.47;;
1877;SDS011;939;51.426;6.972;2023-04-23T12:30:10;3.00;;;1.87;;
1877;SDS011;939;51.426;6.972;2023-04-23T12:32:38;1.73;;;1.37;;
1877;SDS011;939;51.426;6.972;2023-04-23T12:35:06;3.33;;;1.80;;
1877;SDS011;939;51.426;6.972;2023-04-23T12:37:35;1.57;;;1.37;;
1877;SDS011;939;51.426;6.972;2023-04-23T12:40:03;2.33;;;1.60;;
1877;SDS011;939;51.426;6.972;2023-04-23T12:42:32;5.23;;;2.27;;
1877;SDS011;939;51.426;6.972;2023-04-23T12:45:08;2.37;;;2.17;;
1877;SDS011;939;51.426;6.972;2023-04-23T12:47:36;2.80;;;2.30;;
1877;SDS011;939;51.426;6.972;2023-04-23T12:50:03;2.13;;;1.90;;
1877;SDS011;939;51.426;6.972;2023-04-23T12:52:31;1.70;;;1.50;;
1877;SDS011;939;51.426;6.972;2023-04-23T12:54:58;1.87;;;1.47;;
1877;SDS011;939;51.426;6.972;2023-04-23T12:57:25;5.10;;;2.13;;
1877;SDS011;939;51.426;6.972;2023-04-23T12:59:52;2.63;;;1.77;;
1877;SDS011;939;51.426;6.972;2023-04-23T13:02:22;1.97;;;1.50;;
1877;SDS011;939;51.426;6.972;2023-04-23T13:04:49;1.40;;;1.30;;
1877;SDS011;939;51.426;6.972;2023-04-23T13:07:18;5.30;;;1.60;;
1877;SDS011;939;51.426;6.972;2023-04-23T13:09:49;2.20;;;1.37;;
1877;SDS011;939;51.426;6.972;2023-04-23T13:12:24;2.20;;;1.40;;
1877;SDS011;939;51.426;6.972;2023-04-23T13:14:56;2.70;;;1.33;;
1877;SDS011;939;51.426;6.972;2023-04-23T13:17:25;1.40;;;1.10;;
1877;SDS011;939;51.426;6.972;2023-04-23T13:19:52;1.97;;;1.50;;
1877;SDS011;939;51.426;6.972;2023-04-23T13:22:20;2.90;;;1.30;;
1877;SDS011;939;51.426;6.972;2023-04-23T13:24:52;3.00;;;1.40;;
1877;SDS011;939;51.426;6.972;2023-04-23T13:27:20;1.50;;;1.20;;
1877;SDS011;939;51.426;6.972;2023-04-23T13:29:48;3.20;;;0.90;;
1877;SDS011;939;51.426;6.972;2023-04-23T13:32:15;3.40;;;1.73;;
1877;SDS011;939;51.426;6.972;2023-04-23T13:34:43;1.70;;;1.20;;
1877;SDS011;939;51.426;6.972;2023-04-23T13:37:10;2.03;;;1.53;;
1877;SDS011;939;51.426;6.972;2023-04-23T13:39:37;1.30;;;1.10;;
1877;SDS011;939;51.426;6.972;2023-04-23T13:42:04;1.50;;;1.10;;
1877;SDS011;939;51.426;6.972;2023-04-23T13:44:31;2.10;;;1.53;;
1877;SDS011;939;51.426;6.972;2023-04-23T13:47:01;5.63;;;1.60;;
1877;SDS011;939;51.426;6.972;2023-04-23T13:49:28;2.57;;;1.50;;
1877;SDS011;939;51.426;6.972;2023-04-23T13:51:56;1.40;;;1.13;;
1877;SDS011;939;51.426;6.972;2023-04-23T13:54:28;1.40;;;1.20;;
1877;SDS011;939;51.426;6.972;2023-04-23T13:56:55;1.40;;;1.30;;
1877;SDS011;939;51.426;6.972;2023-04-23T13:59:22;1.60;;;1.10;;
1877;SDS011;939;51.426;6.972;2023-04-23T14:01:49;2.63;;;1.60;;
1877;SDS011;939;51.426;6.972;2023-04-23T14:04:17;1.80;;;1.50;;
1877;SDS011;939;51.426;6.972;2023-04-23T14:06:44;2.50;;;1.30;;
1877;SDS011;939;51.426;6.972;2023-04-23T14:09:12;1.50;;;1.40;;
1877;SDS011;939;51.426;6.972;2023-04-23T14:11:39;1.50;;;1.27;;
1877;SDS011;939;51.426;6.972;2023-04-23T14:14:06;2.33;;;1.30;;
1877;SDS011;939;51.426;6.972;2023-04-23T14:16:33;2.00;;;1.53;;
1877;SDS011;939;51.426;6.972;2023-04-23T14:19:00;2.17;;;1.40;;
1877;SDS011;939;51.426;6.972;2023-04-23T14:21:27;3.83;;;1.83;;
1877;SDS011;939;51.426;6.972;2023-04-23T14:24:00;1.97;;;1.10;;
1877;SDS011;939;51.426;6.972;2023-04-23T14:26:31;2.07;;;1.03;;
1877;SDS011;939;51.426;6.972;2023-04-23T14:29:03;1.50;;;1.33;;
1877;SDS011;939;51.426;6.972;2023-04-23T14:31:35;4.50;;;1.20;;
1877;SDS011;939;51.426;6.972;2023-04-23T14:34:03;1.40;;;1.20;;
1877;SDS011;939;51.426;6.972;2023-04-23T14:36:30;1.57;;;1.30;;
1877;SDS011;939;51.426;6.972;2023-04-23T14:38:57;1.47;;;1.03;;
1877;SDS011;939;51.426;6.972;2023-04-23T14:41:30;2.70;;;1.70;;
1877;SDS011;939;51.426;6.972;2023-04-23T14:43:58;1.50;;;1.20;;
1877;SDS011;939;51.426;6.972;2023-04-23T14:46:25;1.30;;;1.00;;
1877;SDS011;939;51.426;6.972;2023-04-23T14:48:53;1.40;;;1.30;;
1877;SDS011;939;51.426;6.972;2023-04-23T14:51:20;1.20;;;1.00;;
1877;SDS011;939;51.426;6.972;2023-04-23T14:53:47;1.37;;;1.03;;
1877;SDS011;939;51.426;6.972;2023-04-23T14:56:14;1.30;;;0.90;;
1877;SDS011;939;51.426;6.972;2023-04-23T14:58:46;2.53;;;1.43;;
1877;SDS011;939;51.426;6.972;2023-04-23T15:01:19;2.70;;;1.20;;
1877;SDS011;939;51.426;6.972;2023-04-23T15:03:46;2.23;;;1.03;;
1877;SDS011;939;51.426;6.972;2023-04-23T15:06:13;2.37;;;1.30;;
1877;SDS011;939;51.426;6.972;2023-04-23T15:08:41;1.60;;;1.30;;
1877;SDS011;939;51.426;6.972;2023-04-23T15:11:07;2.07;;;1.37;;
1877;SDS011;939;51.426;6.972;2023-04-23T15:13:38;1.33;;;0.90;;
1877;SDS011;939;51.426;6.972;2023-04-23T15:16:18;1.47;;;1.00;;
1877;SDS011;939;51.426;6.972;2023-04-23T15:18:52;1.40;;;1.23;;
1877;SDS011;939;51.426;6.972;2023-04-23T15:21:20;2.73;;;1.13;;
1877;SDS011;939;51.426;6.972;2023-04-23T15:23:46;2.10;;;1.70;;
1877;SDS011;939;51.426;6.972;2023-04-23T15:26:13;2.47;;;1.30;;
1877;SDS011;939;51.426;6.972;2023-04-23T15:28:40;1.43;;;1.10;;
1877;SDS011;939;51.426;6.972;2023-04-23T15:31:09;1.53;;;1.20;;
1877;SDS011;939;51.426;6.972;2023-04-23T15:33:36;2.20;;;1.73;;
1877;SDS011;939;51.426;6.972;2023-04-23T15:36:03;1.30;;;0.90;;
1877;SDS011;939;51.426;6.972;2023-04-23T15:38:30;1.80;;;1.50;;
1877;SDS011;939;51.426;6.972;2023-04-23T15:40:57;1.67;;;1.20;;
1877;SDS011;939;51.426;6.972;2023-04-23T15:43:25;1.60;;;0.90;;
1877;SDS011;939;51.426;6.972;2023-04-23T15:45:52;2.40;;;1.57;;
1877;SDS011;939;51.426;6.972;2023-04-23T15:48:24;2.70;;;1.20;;
1877;SDS011;939;51.426;6.972;2023-04-23T15:50:51;1.70;;;1.20;;
1877;SDS011;939;51.426;6.972;2023-04-23T15:53:18;1.30;;;1.00;;
1877;SDS011;939;51.426;6.972;2023-04-23T15:55:47;1.40;;;1.10;;
1877;SDS011;939;51.426;6.972;2023-04-23T15:58:14;1.20;;;0.80;;
1877;SDS011;939;51.426;6.972;2023-04-23T16:00:41;1.33;;;1.10;;
1877;SDS011;939;51.426;6.972;2023-04-23T16:03:11;1.40;;;1.07;;
1877;SDS011;939;51.426;6.972;2023-04-23T16:05:40;1.70;;;1.50;;
1877;SDS011;939;51.426;6.972;2023-04-23T16:08:07;2.23;;;1.40;;
1877;SDS011;939;51.426;6.972;2023-04-23T16:10:34;9.33;;;1.90;;
1877;SDS011;939;51.426;6.972;2023-04-23T16:13:03;1.50;;;1.27;;
1877;SDS011;939;51.426;6.972;2023-04-23T16:15:30;1.80;;;1.53;;
1877;SDS011;939;51.426;6.972;2023-04-23T16:17:57;3.23;;;1.43;;
1877;SDS011;939;51.426;6.972;2023-04-23T16:20:24;1.83;;;1.43;;
1877;SDS011;939;51.426;6.972;2023-04-23T16:22:53;2.33;;;1.63;;
1877;SDS011;939;51.426;6.972;2023-04-23T16:25:20;1.70;;;1.50;;
1877;SDS011;939;51.426;6.972;2023-04-23T16:27:47;1.63;;;1.30;;
1877;SDS011;939;51.426;6.972;2023-04-23T16:30:14;7.63;;;1.90;;
1877;SDS011;939;51.426;6.972;2023-04-23T16:32:41;1.40;;;1.20;;
1877;SDS011;939;51.426;6.972;2023-04-23T16:35:08;1.67;;;1.47;;
1877;SDS011;939;51.426;6.972;2023-04-23T16:37:35;3.83;;;1.53;;
1877;SDS011;939;51.426;6.972;2023-04-23T16:40:04;2.90;;;1.63;;
1877;SDS011;939;51.426;6.972;2023-04-23T16:42:31;4.67;;;1.80;;
1877;SDS011;939;51.426;6.972;2023-04-23T16:44:58;2.83;;;2.53;;
1877;SDS011;939;51.426;6.972;2023-04-23T16:47:26;2.50;;;1.43;;
1877;SDS011;939;51.426;6.972;2023-04-23T16:49:52;6.07;;;2.70;;
1877;SDS011;939;51.426;6.972;2023-04-23T16:52:19;11.23;;;2.13;;
1877;SDS011;939;51.426;6.972;2023-04-23T16:54:46;3.13;;;2.33;;
1877;SDS011;939;51.426;6.972;2023-04-23T16:57:16;2.67;;;2.47;;
1877;SDS011;939;51.426;6.972;2023-04-23T16:59:43;2.83;;;2.53;;
1877;SDS011;939;51.426;6.972;2023-04-23T17:02:10;2.07;;;1.67;;
1877;SDS011;939;51.426;6.972;2023-04-23T17:04:37;9.00;;;3.07;;
1877;SDS011;939;51.426;6.972;2023-04-23T17:07:03;6.50;;;2.73;;
1877;SDS011;939;51.426;6.972;2023-04-23T17:09:31;4.53;;;2.00;;
1877;SDS011;939;51.426;6.972;2023-04-23T17:11:58;3.90;;;2.47;;
1877;SDS011;939;51.426;6.972;2023-04-23T17:14:26;2.27;;;2.07;;
1877;SDS011;939;51.426;6.972;2023-04-23T17:16:53;1.60;;;1.50;;
1877;SDS011;939;51.426;6.972;2023-04-23T17:19:20;3.63;;;2.20;;
1877;SDS011;939;51.426;6.972;2023-04-23T17:21:47;2.83;;;2.40;;
1877;SDS011;939;51.426;6.972;2023-04-23T17:24:14;2.67;;;1.90;;
1877;SDS011;939;51.426;6.972;2023-04-23T17:26:41;2.40;;;1.70;;
1877;SDS011;939;51.426;6.972;2023-04-23T17:29:08;1.83;;;1.60;;
1877;SDS011;939;51.426;6.972;2023-04-23T17:31:36;3.23;;;2.50;;
1877;SDS011;939;51.426;6.972;2023-04-23T17:34:04;2.73;;;2.30;;
1877;SDS011;939;51.426;6.972;2023-04-23T17:36:31;2.80;;;2.27;;
1877;SDS011;939;51.426;6.972;2023-04-23T17:38:57;2.93;;;2.23;;
1877;SDS011;939;51.426;6.972;2023-04-23T17:41:24;1.93;;;1.73;;
1877;SDS011;939;51.426;6.972;2023-04-23T17:43:52;2.70;;;2.20;;
1877;SDS011;939;51.426;6.972;2023-04-23T17:46:18;3.37;;;2.60;;
1877;SDS011;939;51.426;6.972;2023-04-23T17:48:47;5.07;;;3.17;;
1877;SDS011;939;51.426;6.972;2023-04-23T17:51:14;4.87;;;2.40;;
1877;SDS011;939;51.426;6.972;2023-04-23T17:53:41;2.90;;;2.37;;
1877;SDS011;939;51.426;6.972;2023-04-23T17:56:12;4.50;;;2.80;;
1877;SDS011;939;51.426;6.972;2023-04-23T17:58:39;4.73;;;2.80;;
1877;SDS011;939;51.426;6.972;2023-04-23T18:01:06;2.70;;;2.40;;
1877;SDS011;939;51.426;6.972;2023-04-23T18:03:33;5.83;;;3.03;;
1877;SDS011;939;51.426;6.972;2023-04-23T18:06:01;3.30;;;2.80;;
1877;SDS011;939;51.426;6.972;2023-04-23T18:08:28;2.57;;;2.30;;
1877;SDS011;939;51.426;6.972;2023-04-23T18:10:55;2.90;;;2.23;;
1877;SDS011;939;51.426;6.972;2023-04-23T18:13:22;1.90;;;1.70;;
1877;SDS011;939;51.426;6.972;2023-04-23T18:15:49;4.90;;;3.07;;